Time;durP1;ratioP1;P1;durP2;ratioP2;P2;SDS_P1;SDS_P2;PMS_P1;PMS_P2;Temp;Humidity;BMP_temperature;BMP_pressure;BME280_temperature;BME280_humidity;BME280_pressure;Samples;Min_cycle;Max_cycle;Signal;HPM_P1;HPM_P2
2022/01/21 00:00:45;;;;;;;;;;;;;;;-2.40;66.61;99731.25;4995440;28;900;-56
2022/01/21 00:03:12;;;;;;;;;;;;;;;-2.23;66.15;99730.44;5015255;28;888;-56
2022/01/21 00:05:39;;;;;;;;;;;;;;;-2.02;66.07;99725.19;5015307;28;1278;-56
2022/01/21 00:08:05;;;;;;;;;;;;;;;-1.94;65.08;99725.19;5015163;28;1910;-56
2022/01/21 00:10:32;;;;;;;;;;;;;;;-2.06;65.17;99682.47;5015337;28;865;-56
2022/01/21 00:12:58;;;;;;;;;;;;;;;-1.65;64.77;99718.25;5015337;28;987;-56
2022/01/21 00:15:25;;;;;;;;;;;;;;;-1.55;64.31;99727.97;5015320;28;891;-56
2022/01/21 00:17:51;;;;;;;;;;;;;;;-1.60;64.25;99723.53;5015344;28;801;-56
2022/01/21 00:31:27;;;;;;;;;;;;;;;-1.99;65.72;99748.91;4954381;29;700;-56
2022/01/21 00:33:54;;;;;;;;;;;;;;;-1.95;66.25;99734.41;4954165;28;1089;-56
2022/01/21 00:36:20;;;;;;;;;;;;;;;-1.87;66.18;99733.59;4954238;29;949;-57
2022/01/21 00:38:47;;;;;;;;;;;;;;;-1.76;66.01;99738.69;4954189;29;829;-57
2022/01/21 00:41:19;;;;;;;;;;;;;;;-1.62;66.34;99724.94;4954220;29;1039;-57
2022/01/21 00:43:45;;;;;;;;;;;;;;;-1.54;66.04;99733.06;4954191;29;946;-56
2022/01/21 00:46:12;;;;;;;;;;;;;;;-1.51;65.78;99720.78;4954125;29;794;-56
2022/01/21 00:48:39;;;;;;;;;;;;;;;-1.42;65.72;99713.44;4954158;29;1949;-56
2022/01/21 00:51:06;;;;;;;;;;;;;;;-1.29;65.01;99717.84;4954393;29;1272;-57
2022/01/21 00:53:33;;;;;;;;;;;;;;;-1.20;64.57;99715.09;4954085;29;858;-56
2022/01/21 00:55:59;;;;;;;;;;;;;;;-1.10;64.28;99716.66;4953903;29;1274;-56
2022/01/21 00:58:25;;;;;;;;;;;;;;;-1.06;63.65;99710.25;4953816;29;892;-56
2022/01/21 01:00:51;;;;;;;;;;;;;;;-1.13;64.05;99701.84;4953805;29;853;-56
2022/01/21 01:03:19;;;;;;;;;;;;;;;-1.20;63.77;99706.94;5007404;28;1059;-58
2022/01/21 01:05:47;;;;;;;;;;;;;;;-1.27;64.70;99699.31;5013946;28;1173;-58
2022/01/21 01:08:13;;;;;;;;;;;;;;;-1.29;64.62;99695.34;5014030;28;1910;-58
2022/01/21 01:21:21;;;;;;;;;;;;;;;-1.32;64.57;99683.25;5014221;28;699;-58
2022/01/21 01:27:36;;;;;;;;;;;;;;;-1.38;65.34;99672.91;5013742;28;930;-58
2022/01/21 01:29:23;;;;;;;;;;;;;;;-1.57;65.64;99665.16;5014004;28;730;-58
2022/01/21 01:31:50;;;;;;;;;;;;;;;-1.68;66.43;99670.94;5013603;28;848;-57
2022/01/21 01:34:17;;;;;;;;;;;;;;;-1.78;66.77;99676.69;5013642;28;927;-58
2022/01/21 01:36:45;;;;;;;;;;;;;;;-1.85;66.86;99670.97;5013771;28;892;-58
2022/01/21 01:39:34;;;;;;;;;;;;;;;-1.88;66.73;99671.63;5013349;28;861;-58
2022/01/21 01:50:33;;;;;;;;;;;;;;;-1.51;66.40;99664.66;5013619;28;647;-57
2022/01/21 01:53:00;;;;;;;;;;;;;;;-1.45;66.01;99673.41;5013234;28;919;-58
2022/01/21 01:55:26;;;;;;;;;;;;;;;-1.41;65.71;99674.34;5013111;28;907;-57
2022/01/21 01:57:53;;;;;;;;;;;;;;;-1.35;65.72;99673.03;5013016;28;848;-58
2022/01/21 02:00:19;;;;;;;;;;;;;;;-1.29;65.79;99669.03;5013138;28;936;-58
2022/01/21 02:02:46;;;;;;;;;;;;;;;-1.22;65.17;99676.66;5013043;28;848;-58
2022/01/21 02:05:12;;;;;;;;;;;;;;;-1.19;65.49;99675.22;5012802;28;1364;-58
2022/01/21 02:07:39;;;;;;;;;;;;;;;-1.18;65.03;99674.88;5012748;28;1915;-57
2022/01/21 02:10:05;;;;;;;;;;;;;;;-1.16;65.05;99677.28;5012979;28;816;-58
2022/01/21 02:12:32;;;;;;;;;;;;;;;-1.12;64.87;99678.22;4995384;28;865;-58
2022/01/21 02:15:00;;;;;;;;;;;;;;;-1.09;64.71;99680.25;5012793;28;1073;-57
2022/01/21 02:22:46;;;;;;;;;;;;;;;-1.02;64.20;99696.84;5012948;28;672;-58
2022/01/21 02:25:17;;;;;;;;;;;;;;;-1.00;64.65;99688.34;5012602;28;923;-58
2022/01/21 02:27:45;;;;;;;;;;;;;;;-0.97;64.68;99690.41;5012403;28;1874;-56
2022/01/21 02:30:18;;;;;;;;;;;;;;;-0.92;64.61;99684.78;5012601;28;899;-58
2022/01/21 02:32:45;;;;;;;;;;;;;;;-0.97;64.78;99680.34;5012453;28;900;-58
2022/01/21 02:35:12;;;;;;;;;;;;;;;-0.89;64.35;99679.50;5012673;28;958;-58
2022/01/21 02:37:39;;;;;;;;;;;;;;;-0.75;63.90;99667.59;4994851;28;865;-58
2022/01/21 02:40:07;;;;;;;;;;;;;;;-0.70;63.41;99660.06;5012367;28;966;-57
2022/01/21 02:42:33;;;;;;;;;;;;;;;-0.68;63.42;99651.59;4994914;28;845;-56
2022/01/21 02:45:00;;;;;;;;;;;;;;;-0.71;63.75;99661.19;5012352;28;883;-56
2022/01/21 02:47:28;;;;;;;;;;;;;;;-0.78;64.16;99658.22;5012223;28;1881;-56
2022/01/21 02:49:54;;;;;;;;;;;;;;;-0.85;64.34;99652.53;5012301;28;860;-56
2022/01/21 02:52:24;;;;;;;;;;;;;;;-0.99;64.90;99649.25;5012211;28;869;-56
2022/01/21 02:54:50;;;;;;;;;;;;;;;-1.11;65.25;99647.22;5012102;28;1223;-56
2022/01/21 02:57:16;;;;;;;;;;;;;;;-1.15;65.48;99659.84;5012099;28;875;-56
2022/01/21 02:59:43;;;;;;;;;;;;;;;-1.21;65.60;99653.84;5012390;28;1091;-56
2022/01/21 03:02:09;;;;;;;;;;;;;;;-1.25;66.33;99663.75;5011994;28;865;-56
2022/01/21 03:04:47;;;;;;;;;;;;;;;-1.32;66.22;99663.47;5011894;28;880;-56
2022/01/21 03:07:13;;;;;;;;;;;;;;;-1.40;67.10;99656.97;5011757;28;1989;-58
2022/01/21 03:09:40;;;;;;;;;;;;;;;-1.46;67.29;99648.19;5011955;28;849;-57
2022/01/21 03:12:07;;;;;;;;;;;;;;;-1.53;67.45;99647.91;5012099;28;896;-56
2022/01/21 03:14:33;;;;;;;;;;;;;;;-1.56;67.70;99645.84;5011923;28;940;-56
2022/01/21 03:17:00;;;;;;;;;;;;;;;-1.60;67.88;99628.66;5011733;28;1212;-56
2022/01/21 03:19:27;;;;;;;;;;;;;;;-1.57;67.89;99638.84;5011718;28;857;-56
2022/01/21 03:21:53;;;;;;;;;;;;;;;-1.58;68.25;99631.84;5011782;28;809;-56
2022/01/21 03:24:19;;;;;;;;;;;;;;;-1.57;68.72;99633.44;5011799;28;813;-56
2022/01/21 03:26:46;;;;;;;;;;;;;;;-1.57;68.89;99611.75;5011684;28;1087;-56
2022/01/21 03:29:13;;;;;;;;;;;;;;;-1.49;68.10;99608.19;5011640;28;1953;-56
2022/01/21 03:31:39;;;;;;;;;;;;;;;-1.36;67.84;99613.72;5011814;28;885;-56
2022/01/21 03:34:05;;;;;;;;;;;;;;;-1.26;67.62;99621.47;5011585;28;964;-56
2022/01/21 03:36:32;;;;;;;;;;;;;;;-1.18;67.06;99631.47;5017405;28;888;-56
2022/01/21 03:38:57;;;;;;;;;;;;;;;-1.13;66.34;99641.34;5000448;28;1291;-56
2022/01/21 03:41:24;;;;;;;;;;;;;;;-1.11;66.33;99639.09;5018124;28;860;-57
2022/01/21 03:43:50;;;;;;;;;;;;;;;-1.10;66.64;99646.13;5018081;28;860;-56
2022/01/21 03:46:17;;;;;;;;;;;;;;;-1.05;66.13;99626.94;5018079;28;924;-56
2022/01/21 03:48:47;;;;;;;;;;;;;;;-1.02;66.49;99618.16;5017983;28;1949;-56
2022/01/21 03:51:14;;;;;;;;;;;;;;;-1.03;66.28;99627.41;5018043;28;911;-56
2022/01/21 03:53:41;;;;;;;;;;;;;;;-1.07;66.50;99631.91;5018071;28;900;-56
2022/01/21 03:56:07;;;;;;;;;;;;;;;-1.08;66.52;99633.81;5017914;28;848;-56
2022/01/21 03:58:33;;;;;;;;;;;;;;;-1.05;66.46;99627.72;5018029;28;857;-56
2022/01/21 04:01:00;;;;;;;;;;;;;;;-1.02;66.28;99629.00;5017770;28;903;-56
2022/01/21 04:03:27;;;;;;;;;;;;;;;-1.01;67.18;99636.00;5018027;28;873;-56
2022/01/21 04:05:54;;;;;;;;;;;;;;;-1.03;67.08;99627.41;5000134;28;1425;-57
2022/01/21 04:08:20;;;;;;;;;;;;;;;-1.10;67.46;99627.13;5017837;28;1911;-56
2022/01/21 04:10:48;;;;;;;;;;;;;;;-1.04;67.10;99620.41;5017864;28;860;-55
2022/01/21 04:13:16;;;;;;;;;;;;;;;-0.95;67.27;99623.84;5017847;28;861;-56
2022/01/21 04:15:44;;;;;;;;;;;;;;;-0.83;66.90;99617.72;5017825;28;953;-56
2022/01/21 04:18:13;;;;;;;;;;;;;;;-0.76;66.29;99612.53;5017818;28;884;-56
2022/01/21 04:20:38;;;;;;;;;;;;;;;-0.62;65.77;99623.13;5017877;28;825;-56
2022/01/21 04:23:04;;;;;;;;;;;;;;;-0.63;65.60;99611.47;5017850;28;841;-56
2022/01/21 04:25:31;;;;;;;;;;;;;;;-0.59;65.37;99611.59;5017555;28;964;-56
2022/01/21 04:27:58;;;;;;;;;;;;;;;-0.47;64.96;99613.56;5017640;28;1878;-56
2022/01/21 04:30:25;;;;;;;;;;;;;;;-0.43;64.86;99622.63;5017729;28;959;-56
2022/01/21 04:32:51;;;;;;;;;;;;;;;-0.45;64.70;99633.03;5017663;28;903;-56
2022/01/21 04:35:18;;;;;;;;;;;;;;;-0.65;65.84;99632.72;5017831;28;987;-56
2022/01/21 04:37:54;;;;;;;;;;;;;;;-0.84;66.81;99632.38;5017608;28;876;-56
2022/01/21 04:40:25;;;;;;;;;;;;;;;-0.73;66.95;99639.00;5017765;28;927;-56
2022/01/21 04:48:20;;;;;;;;;;;;;;;-0.40;66.93;99637.50;5014467;28;1946;-56
2022/01/21 04:50:56;;;;;;;;;;;;;;;-0.23;66.86;99638.13;5014476;28;824;-58
2022/01/21 04:53:24;;;;;;;;;;;;;;;0.04;67.72;99635.16;5014417;28;904;-58
2022/01/21 04:55:51;;;;;;;;;;;;;;;0.52;67.24;99637.16;5014317;28;845;-56
2022/01/21 04:58:17;;;;;;;;;;;;;;;0.87;67.24;99625.03;5014353;28;841;-56
2022/01/21 05:00:44;;;;;;;;;;;;;;;1.82;70.67;99618.06;5014129;28;856;-57
2022/01/21 05:03:10;;;;;;;;;;;;;;;2.91;68.21;99618.81;5014198;28;849;-57
2022/01/21 05:05:37;;;;;;;;;;;;;;;3.32;66.73;99614.63;5014025;28;1365;-56
2022/01/21 05:08:07;;;;;;;;;;;;;;;3.49;65.94;99591.56;5014159;28;1975;-58
2022/01/21 05:10:35;;;;;;;;;;;;;;;3.66;66.09;99623.94;5014037;28;916;-58
2022/01/21 05:13:01;;;;;;;;;;;;;;;3.70;65.83;99591.19;5013783;28;1007;-55
2022/01/21 05:15:47;;;;;;;;;;;;;;;3.76;65.98;99602.66;5013979;28;877;-57
2022/01/21 05:18:14;;;;;;;;;;;;;;;3.78;66.73;99590.19;5013854;28;937;-58
2022/01/21 05:20:40;;;;;;;;;;;;;;;3.90;66.32;99616.56;5013824;28;889;-58
2022/01/21 05:23:06;;;;;;;;;;;;;;;3.95;66.18;99615.47;5013722;28;868;-56
2022/01/21 05:25:33;;;;;;;;;;;;;;;3.97;66.27;99603.03;5013852;28;884;-55
2022/01/21 05:28:00;;;;;;;;;;;;;;;4.00;65.50;99588.63;5013779;28;1886;-57
2022/01/21 05:30:27;;;;;;;;;;;;;;;3.96;65.73;99608.88;5013776;28;861;-57
2022/01/21 05:32:54;;;;;;;;;;;;;;;3.87;66.20;99604.41;5013669;28;809;-56
2022/01/21 05:35:21;;;;;;;;;;;;;;;3.43;68.15;99595.72;5013821;28;1001;-57
2022/01/21 05:37:48;;;;;;;;;;;;;;;3.21;69.12;99608.16;5013459;28;936;-58
2022/01/21 05:40:15;;;;;;;;;;;;;;;3.20;69.29;99603.84;5013483;28;932;-54
2022/01/21 05:42:53;;;;;;;;;;;;;;;3.15;69.97;99629.50;4996230;28;1043;-57
2022/01/21 05:48:05;;;;;;;;;;;;;;;3.04;70.77;99628.47;5013380;28;1878;-57
2022/01/21 05:50:30;;;;;;;;;;;;;;;3.15;70.06;99656.03;5013216;28;906;-56
2022/01/21 05:52:57;;;;;;;;;;;;;;;3.20;69.62;99636.59;5013106;28;1163;-53
2022/01/21 05:55:23;;;;;;;;;;;;;;;3.23;70.04;99660.50;5013255;28;840;-55
2022/01/21 05:57:50;;;;;;;;;;;;;;;3.19;70.28;99665.88;5012456;28;912;-55
2022/01/21 06:00:17;;;;;;;;;;;;;;;3.19;69.61;99648.69;5013210;28;849;-55
2022/01/21 06:02:44;;;;;;;;;;;;;;;3.19;69.79;99687.72;5013087;28;869;-56
2022/01/21 06:05:13;;;;;;;;;;;;;;;3.21;69.94;99720.16;5012962;28;864;-56
2022/01/21 06:07:40;;;;;;;;;;;;;;;3.09;70.76;99726.50;4993535;28;1906;-56
2022/01/21 06:10:07;;;;;;;;;;;;;;;3.02;70.73;99729.84;4993436;28;899;-57
2022/01/21 06:12:34;;;;;;;;;;;;;;;2.95;71.85;99737.09;4993417;28;869;-56
2022/01/21 06:14:59;;;;;;;;;;;;;;;2.89;71.80;99736.56;4993288;28;931;-58
2022/01/21 06:17:26;;;;;;;;;;;;;;;2.82;73.28;99748.09;4993265;28;856;-57
2022/01/21 06:19:52;;;;;;;;;;;;;;;2.78;73.46;99747.19;4993157;28;963;-57
2022/01/21 06:22:19;;;;;;;;;;;;;;;2.88;73.60;99750.53;4992900;28;915;-57
2022/01/21 06:27:47;;;;;;;;;;;;;;;2.76;74.45;99759.63;4993738;28;1957;-55
2022/01/21 06:33:16;;;;;;;;;;;;;;;2.30;78.20;99764.63;4993012;28;612;-56
2022/01/21 06:35:43;;;;;;;;;;;;;;;2.14;79.38;99761.88;4993080;28;975;-57
2022/01/21 06:38:09;;;;;;;;;;;;;;;2.00;81.05;99757.56;4992810;28;845;-59
2022/01/21 06:40:36;;;;;;;;;;;;;;;2.00;79.63;99737.69;4992896;28;845;-58
2022/01/21 06:43:03;;;;;;;;;;;;;;;1.87;82.03;99749.78;4992820;28;845;-60
2022/01/21 06:45:30;;;;;;;;;;;;;;;1.81;82.46;99733.69;4993013;28;879;-59
2022/01/21 06:48:02;;;;;;;;;;;;;;;1.71;83.00;99750.50;4992597;28;1878;-62
2022/01/21 06:50:29;;;;;;;;;;;;;;;1.68;83.42;99753.13;4992588;28;919;-64
2022/01/21 06:52:55;;;;;;;;;;;;;;;1.59;84.88;99724.06;4992473;28;895;-66
2022/01/21 06:55:22;;;;;;;;;;;;;;;1.57;84.37;99728.28;4992583;28;813;-66
2022/01/21 06:57:48;;;;;;;;;;;;;;;1.58;84.66;99730.66;4992506;28;825;-67
2022/01/21 07:00:18;;;;;;;;;;;;;;;1.58;84.26;99729.84;4991237;28;1211;-59
2022/01/21 07:02:48;;;;;;;;;;;;;;;1.54;84.42;99713.44;4992424;28;893;-60
2022/01/21 07:05:15;;;;;;;;;;;;;;;1.51;84.77;99726.94;4993115;28;1191;-64
2022/01/21 07:07:42;;;;;;;;;;;;;;;1.56;84.61;99738.38;5012355;28;1910;-62
2022/01/21 07:10:11;;;;;;;;;;;;;;;1.58;84.85;99718.97;5011167;28;841;-64
2022/01/21 07:12:38;;;;;;;;;;;;;;;1.52;84.52;99712.19;4994486;28;1271;-68
2022/01/21 07:15:05;;;;;;;;;;;;;;;1.48;85.57;99712.06;5011983;28;931;-68
2022/01/21 07:17:32;;;;;;;;;;;;;;;1.51;84.94;99725.00;4994248;28;1060;-70
2022/01/21 07:19:59;;;;;;;;;;;;;;;1.46;84.84;99740.78;5012467;28;824;-68
2022/01/21 07:22:26;;;;;;;;;;;;;;;1.45;85.92;99747.38;5011868;28;908;-68
2022/01/21 07:24:52;;;;;;;;;;;;;;;1.39;86.07;99749.53;5011984;28;829;-70
2022/01/21 07:27:22;;;;;;;;;;;;;;;1.35;87.00;99743.97;5011986;28;1881;-73
2022/01/21 07:29:48;;;;;;;;;;;;;;;1.25;87.31;99752.59;5011552;28;975;-69
2022/01/21 07:32:15;;;;;;;;;;;;;;;1.19;86.99;99749.31;5011741;28;927;-66
2022/01/21 07:34:42;;;;;;;;;;;;;;;1.17;87.62;99753.50;5011866;28;922;-74
2022/01/21 07:37:08;;;;;;;;;;;;;;;1.15;87.49;99762.03;5011763;28;832;-63
2022/01/21 07:39:35;;;;;;;;;;;;;;;1.17;88.00;99748.06;5011721;28;1031;-67
2022/01/21 07:42:19;;;;;;;;;;;;;;;1.10;88.56;99770.41;5011746;28;896;-75
2022/01/21 07:44:47;;;;;;;;;;;;;;;1.08;89.01;99764.50;5011834;28;782;-68
2022/01/21 07:47:13;;;;;;;;;;;;;;;1.10;88.99;99766.91;5011454;28;1882;-65
2022/01/21 07:49:40;;;;;;;;;;;;;;;1.08;89.03;99793.66;5011580;28;872;-60
2022/01/21 07:52:08;;;;;;;;;;;;;;;1.07;89.72;99798.31;5011304;28;927;-58
2022/01/21 07:54:35;;;;;;;;;;;;;;;1.12;89.85;99808.97;5011451;28;960;-75
2022/01/21 07:57:02;;;;;;;;;;;;;;;1.13;89.69;99813.31;4994062;28;1200;-67
2022/01/21 07:59:28;;;;;;;;;;;;;;;1.20;90.59;99818.19;5011532;28;837;-62
2022/01/21 08:01:54;;;;;;;;;;;;;;;1.21;90.13;99822.47;5011465;28;844;-60
2022/01/21 08:04:21;;;;;;;;;;;;;;;1.25;89.95;99828.06;5011638;28;887;-59
2022/01/21 08:06:47;;;;;;;;;;;;;;;1.33;90.53;99840.78;5011204;28;1479;-59
2022/01/21 08:09:13;;;;;;;;;;;;;;;1.47;89.89;99848.59;5011310;28;1922;-57
2022/01/21 08:11:39;;;;;;;;;;;;;;;1.52;89.53;99856.56;5011373;28;880;-57
2022/01/21 08:14:06;;;;;;;;;;;;;;;1.55;89.05;99853.94;5011295;28;882;-57
2022/01/21 08:16:35;;;;;;;;;;;;;;;1.58;89.66;99855.19;5011335;28;817;-56
2022/01/21 08:19:03;;;;;;;;;;;;;;;1.69;89.01;99861.78;5011256;28;864;-57
2022/01/21 08:21:30;;;;;;;;;;;;;;;1.84;89.55;99860.28;5012406;28;904;-56
2022/01/21 08:23:56;;;;;;;;;;;;;;;1.86;87.92;99857.22;5015004;28;896;-59
2022/01/21 08:26:24;;;;;;;;;;;;;;;1.90;88.93;99863.56;5014845;28;945;-57
2022/01/21 08:28:52;;;;;;;;;;;;;;;1.97;88.86;99864.59;5014767;28;1960;-57
2022/01/21 08:31:19;;;;;;;;;;;;;;;2.02;88.84;99869.00;5014807;28;892;-57
2022/01/21 08:33:45;;;;;;;;;;;;;;;2.22;88.05;99880.91;5014850;28;837;-58
2022/01/21 08:36:12;;;;;;;;;;;;;;;2.36;87.84;99883.25;5015089;28;941;-58
2022/01/21 08:38:38;;;;;;;;;;;;;;;2.36;87.32;99883.25;5014706;28;837;-58
2022/01/21 08:41:04;;;;;;;;;;;;;;;2.39;87.60;99898.94;5014634;28;927;-58
2022/01/21 08:43:31;;;;;;;;;;;;;;;2.33;85.94;99895.66;5014868;28;833;-66
2022/01/21 08:45:57;;;;;;;;;;;;;;;2.28;83.35;99892.38;5014530;28;903;-67
2022/01/21 08:48:24;;;;;;;;;;;;;;;2.28;82.58;99886.91;5014473;28;1894;-66
2022/01/21 08:50:51;;;;;;;;;;;;;;;2.38;81.80;99898.13;5014343;28;912;-65
2022/01/21 08:56:04;;;;;;;;;;;;;;;2.70;82.00;99902.94;5014406;28;640;-65
2022/01/21 08:58:30;;;;;;;;;;;;;;;2.81;82.60;99907.53;5014271;28;923;-66
2022/01/21 09:00:57;;;;;;;;;;;;;;;2.84;82.61;99909.59;5014412;28;880;-65
2022/01/21 09:03:23;;;;;;;;;;;;;;;2.79;81.07;99900.84;5014267;28;919;-63
2022/01/21 09:05:50;;;;;;;;;;;;;;;2.78;80.69;99907.47;5013972;28;1410;-62
2022/01/21 09:08:18;;;;;;;;;;;;;;;2.78;80.19;99904.75;5014096;28;1918;-61
2022/01/21 09:10:45;;;;;;;;;;;;;;;2.82;79.68;99906.41;5014089;28;833;-60
2022/01/21 09:13:12;;;;;;;;;;;;;;;2.83;79.73;99907.22;5014029;28;868;-60
2022/01/21 09:15:38;;;;;;;;;;;;;;;2.87;79.11;99902.66;5014326;28;813;-59
2022/01/21 09:18:05;;;;;;;;;;;;;;;2.91;78.43;99898.06;5013957;28;896;-59
2022/01/21 09:20:32;;;;;;;;;;;;;;;2.96;78.12;99902.50;5013734;28;865;-58
2022/01/21 09:22:58;;;;;;;;;;;;;;;2.90;75.95;99896.47;5013817;28;813;-58
2022/01/21 09:25:24;;;;;;;;;;;;;;;2.97;76.44;99907.59;5013872;28;817;-58
2022/01/21 09:27:52;;;;;;;;;;;;;;;3.09;75.75;99895.03;5013704;28;1955;-59
2022/01/21 09:30:18;;;;;;;;;;;;;;;3.16;75.87;99904.22;5013776;28;883;-59
2022/01/21 09:32:45;;;;;;;;;;;;;;;3.20;75.72;99902.38;5012837;28;861;-59
2022/01/21 09:35:12;;;;;;;;;;;;;;;3.21;75.50;99892.22;5013852;28;1003;-59
2022/01/21 09:37:39;;;;;;;;;;;;;;;3.18;73.57;99876.53;5013540;28;865;-58
2022/01/21 09:40:06;;;;;;;;;;;;;;;3.12;73.10;99881.47;5013892;28;824;-58
2022/01/21 09:42:34;;;;;;;;;;;;;;;3.09;73.02;99892.28;5013552;28;884;-58
2022/01/21 09:45:00;;;;;;;;;;;;;;;3.15;72.83;99888.97;5013485;28;857;-58
2022/01/21 09:47:31;;;;;;;;;;;;;;;3.16;71.80;99879.63;5013364;28;1957;-58
2022/01/21 09:49:58;;;;;;;;;;;;;;;3.25;73.27;99882.97;5013204;28;864;-59
2022/01/21 09:52:26;;;;;;;;;;;;;;;3.31;72.28;99877.25;5013366;28;880;-60
2022/01/21 09:54:53;;;;;;;;;;;;;;;3.37;72.21;99884.03;5013263;28;859;-59
2022/01/21 09:57:21;;;;;;;;;;;;;;;3.42;72.06;99879.13;5013224;28;876;-59
2022/01/21 09:59:49;;;;;;;;;;;;;;;3.45;70.11;99875.66;5013207;28;825;-59
2022/01/21 10:02:17;;;;;;;;;;;;;;;3.38;68.57;99878.22;5013144;28;884;-60
2022/01/21 10:04:43;;;;;;;;;;;;;;;3.38;66.48;99875.50;4995518;28;1187;-60
2022/01/21 10:07:12;;;;;;;;;;;;;;;3.58;67.27;99870.13;5012818;28;1985;-60
2022/01/21 10:09:39;;;;;;;;;;;;;;;3.62;65.52;99879.19;5013071;28;919;-60
2022/01/21 10:12:06;;;;;;;;;;;;;;;3.54;59.84;99861.84;5012869;28;884;-60
2022/01/21 10:14:32;;;;;;;;;;;;;;;3.54;59.53;99861.84;5013095;28;840;-60
2022/01/21 10:16:59;;;;;;;;;;;;;;;3.50;58.13;99868.34;5012865;28;832;-60
2022/01/21 10:19:27;;;;;;;;;;;;;;;3.52;58.33;99864.16;5012726;28;844;-60
2022/01/21 10:22:05;;;;;;;;;;;;;;;3.61;58.64;99872.94;5012809;28;895;-59
2022/01/21 10:24:33;;;;;;;;;;;;;;;3.57;57.60;99876.75;5012690;28;864;-60
2022/01/21 10:27:00;;;;;;;;;;;;;;;3.61;56.87;99877.63;5012747;28;848;-61
2022/01/21 10:29:40;;;;;;;;;;;;;;;3.72;56.48;99856.00;5012508;28;1883;-58
2022/01/21 10:32:08;;;;;;;;;;;;;;;3.64;57.91;99865.97;5012976;28;891;-61
2022/01/21 10:34:39;;;;;;;;;;;;;;;3.53;57.16;99870.41;5012812;28;926;-60
2022/01/21 10:37:26;;;;;;;;;;;;;;;3.64;58.28;99874.19;5012576;28;875;-61
2022/01/21 10:39:59;;;;;;;;;;;;;;;3.36;59.16;99852.41;5012807;28;825;-58
2022/01/21 10:42:26;;;;;;;;;;;;;;;3.13;59.35;99882.25;5012375;28;934;-60
2022/01/21 10:44:53;;;;;;;;;;;;;;;2.94;61.94;99878.25;5012271;28;899;-60
2022/01/21 10:47:24;;;;;;;;;;;;;;;2.89;63.26;99891.38;5012309;28;1890;-60
2022/01/21 10:50:03;;;;;;;;;;;;;;;2.72;62.83;99881.56;5012188;28;821;-58
2022/01/21 10:52:33;;;;;;;;;;;;;;;2.47;62.49;99876.19;4994621;28;1547;-58
2022/01/21 10:55:01;;;;;;;;;;;;;;;2.35;63.78;99881.69;5012273;28;896;-60
2022/01/21 10:57:30;;;;;;;;;;;;;;;2.46;63.24;99882.78;5012151;28;919;-60
2022/01/21 11:00:00;;;;;;;;;;;;;;;2.59;63.94;99869.91;5012271;28;904;-60
2022/01/21 11:02:48;;;;;;;;;;;;;;;2.57;62.36;99867.50;5012096;28;833;-60
2022/01/21 11:05:23;;;;;;;;;;;;;;;2.56;61.60;99871.38;5012032;28;868;-59
2022/01/21 11:07:50;;;;;;;;;;;;;;;2.67;61.19;99868.97;4992929;28;1922;-60
2022/01/21 11:10:35;;;;;;;;;;;;;;;2.78;61.99;99872.78;4975274;28;1296;-60
2022/01/21 11:13:03;;;;;;;;;;;;;;;2.72;60.58;99867.91;4992270;28;864;-60
2022/01/21 11:15:48;;;;;;;;;;;;;;;2.64;60.05;99856.00;4992330;28;837;-60
2022/01/21 11:18:18;;;;;;;;;;;;;;;2.52;59.84;99853.31;4992065;28;976;-59
2022/01/21 11:20:47;;;;;;;;;;;;;;;2.47;60.73;99868.00;4992220;28;849;-60
2022/01/21 11:23:15;;;;;;;;;;;;;;;2.55;59.85;99852.63;4992241;28;841;-59
2022/01/21 11:25:41;;;;;;;;;;;;;;;2.55;60.12;99845.22;4992155;28;841;-61
2022/01/21 11:28:07;;;;;;;;;;;;;;;2.54;59.95;99840.94;4992298;28;1899;-59
2022/01/21 11:30:34;;;;;;;;;;;;;;;2.55;57.79;99845.22;4992238;28;818;-59
2022/01/21 11:33:00;;;;;;;;;;;;;;;2.51;57.02;99846.28;4992300;28;900;-59
2022/01/21 11:35:30;;;;;;;;;;;;;;;2.48;58.15;99855.94;4992638;28;885;-59
2022/01/21 11:37:57;;;;;;;;;;;;;;;2.53;57.79;99844.78;4974603;28;898;-58
2022/01/21 11:40:24;;;;;;;;;;;;;;;2.58;59.07;99843.72;4991899;28;975;-59
2022/01/21 11:42:51;;;;;;;;;;;;;;;2.58;58.65;99852.72;4991992;28;853;-59
2022/01/21 11:46:16;;;;;;;;;;;;;;;2.62;58.88;99848.19;4992146;28;829;-59
2022/01/21 11:50:46;;;;;;;;;;;;;;;2.58;57.75;99839.09;4991948;28;765;-59
2022/01/21 11:53:13;;;;;;;;;;;;;;;2.66;58.24;99829.94;4992137;28;908;-59
2022/01/21 11:55:45;;;;;;;;;;;;;;;2.68;57.71;99824.13;4991913;28;837;-59
2022/01/21 11:58:17;;;;;;;;;;;;;;;2.80;57.85;99821.34;4996135;28;1035;-59
2022/01/21 12:00:47;;;;;;;;;;;;;;;2.92;58.89;99812.28;4995659;28;841;-57
2022/01/21 12:03:15;;;;;;;;;;;;;;;3.03;58.62;99801.63;4995718;28;912;-59
2022/01/21 12:05:41;;;;;;;;;;;;;;;3.04;57.38;99798.56;4998818;28;1253;-59
2022/01/21 12:08:07;;;;;;;;;;;;;;;3.10;56.31;99795.59;5015218;28;1914;-59
2022/01/21 12:10:35;;;;;;;;;;;;;;;3.25;57.14;99790.09;5015239;28;857;-58
2022/01/21 12:13:26;;;;;;;;;;;;;;;3.37;55.28;99788.41;5015204;28;820;-58
2022/01/21 12:16:08;;;;;;;;;;;;;;;3.40;54.91;99777.56;5015063;28;968;-58
2022/01/21 12:21:29;;;;;;;;;;;;;;;3.66;55.12;99798.88;5015095;28;785;-58
2022/01/21 12:23:56;;;;;;;;;;;;;;;3.56;55.07;99793.16;4997358;28;1651;-58
2022/01/21 12:26:23;;;;;;;;;;;;;;;3.50;55.09;99784.47;5014977;28;828;-58
2022/01/21 12:28:53;;;;;;;;;;;;;;;3.40;54.29;99779.53;5014856;28;1889;-56
2022/01/21 12:31:22;;;;;;;;;;;;;;;3.30;54.01;99775.38;5014748;28;1362;-56
2022/01/21 12:33:59;;;;;;;;;;;;;;;3.25;54.77;99775.66;5014734;28;1095;-57
2022/01/21 12:36:33;;;;;;;;;;;;;;;3.22;54.86;99779.09;5014921;28;887;-56
2022/01/21 12:41:35;;;;;;;;;;;;;;;3.15;55.37;99781.66;5014687;28;738;-56
2022/01/21 12:44:03;;;;;;;;;;;;;;;3.18;55.44;99779.03;4997149;28;977;-58
2022/01/21 12:46:30;;;;;;;;;;;;;;;3.20;55.15;99774.00;5014874;28;1066;-58
2022/01/21 12:48:58;;;;;;;;;;;;;;;3.13;54.14;99775.75;5014894;28;1894;-58
2022/01/21 12:56:46;;;;;;;;;;;;;;;3.04;53.87;99781.38;5014652;28;654;-58
2022/01/21 12:59:21;;;;;;;;;;;;;;;3.06;53.12;99779.88;5014463;28;914;-57
2022/01/21 13:01:47;;;;;;;;;;;;;;;3.13;53.07;99794.88;5014257;28;836;-58
2022/01/21 13:04:14;;;;;;;;;;;;;;;3.18;52.32;99792.69;5014182;28;912;-58
2022/01/21 13:06:43;;;;;;;;;;;;;;;3.21;52.86;99791.97;5014097;28;1243;-57
2022/01/21 13:09:10;;;;;;;;;;;;;;;3.26;53.62;99802.63;5012966;28;1910;-58
2022/01/21 13:11:42;;;;;;;;;;;;;;;3.28;53.12;99803.03;5013997;28;904;-57
2022/01/21 13:16:55;;;;;;;;;;;;;;;3.13;52.66;99806.56;5013980;28;678;-57
2022/01/21 13:19:21;;;;;;;;;;;;;;;3.09;52.57;99807.63;5013820;28;1082;-57
2022/01/21 13:21:48;;;;;;;;;;;;;;;3.02;51.73;99817.22;5014035;28;888;-57
2022/01/21 13:24:28;;;;;;;;;;;;;;;2.94;51.05;99815.47;5013906;28;872;-57
2022/01/21 13:26:55;;;;;;;;;;;;;;;2.91;51.26;99816.16;5013849;28;845;-57
2022/01/21 13:29:32;;;;;;;;;;;;;;;2.92;52.36;99823.19;5013995;28;1890;-57
2022/01/21 13:31:59;;;;;;;;;;;;;;;2.91;53.91;99821.63;5014066;28;781;-57
2022/01/21 13:34:27;;;;;;;;;;;;;;;2.88;54.33;99821.53;5013725;28;1037;-57
2022/01/21 13:36:57;;;;;;;;;;;;;;;2.88;53.35;99829.72;5014022;28;829;-57
2022/01/21 13:39:23;;;;;;;;;;;;;;;2.83;51.47;99826.09;5013571;28;836;-57
2022/01/21 13:41:54;;;;;;;;;;;;;;;2.74;50.11;99828.19;5013754;28;884;-57
2022/01/21 13:44:31;;;;;;;;;;;;;;;2.71;52.13;99841.75;5013550;28;808;-57
2022/01/21 13:46:58;;;;;;;;;;;;;;;2.66;52.08;99846.31;5013623;28;860;-56
2022/01/21 13:49:26;;;;;;;;;;;;;;;2.65;50.50;99847.47;5013387;28;1911;-57
2022/01/21 13:52:03;;;;;;;;;;;;;;;2.60;52.03;99846.91;5013328;28;865;-57
2022/01/21 13:54:34;;;;;;;;;;;;;;;2.55;52.31;99847.16;5013400;28;873;-57
2022/01/21 13:57:02;;;;;;;;;;;;;;;2.47;53.19;99839.91;5013088;28;939;-56
2022/01/21 13:59:29;;;;;;;;;;;;;;;2.47;52.07;99840.72;5013169;28;955;-56
2022/01/21 14:02:14;;;;;;;;;;;;;;;2.44;52.39;99838.69;5013127;28;1004;-57
2022/01/21 14:04:53;;;;;;;;;;;;;;;2.42;52.78;99835.50;5013114;28;1105;-57
2022/01/21 14:07:21;;;;;;;;;;;;;;;2.38;54.09;99826.44;5012750;28;1906;-57
2022/01/21 14:09:47;;;;;;;;;;;;;;;2.39;53.51;99839.72;5013104;28;844;-57
2022/01/21 14:12:14;;;;;;;;;;;;;;;2.38;52.62;99829.94;5012959;28;857;-57
2022/01/21 14:14:41;;;;;;;;;;;;;;;2.39;52.21;99830.72;5012842;28;844;-57
2022/01/21 14:17:08;;;;;;;;;;;;;;;2.43;51.71;99837.09;5012860;28;896;-56
2022/01/21 14:19:39;;;;;;;;;;;;;;;2.40;51.91;99846.75;5012729;28;841;-55
2022/01/21 14:22:09;;;;;;;;;;;;;;;2.40;51.88;99840.50;5012764;28;919;-56
2022/01/21 14:24:40;;;;;;;;;;;;;;;2.37;52.85;99827.56;5012828;28;820;-55
2022/01/21 14:27:15;;;;;;;;;;;;;;;2.35;54.20;99841.56;5012695;28;836;-55
2022/01/21 14:29:42;;;;;;;;;;;;;;;2.34;53.18;99830.97;5012648;28;1953;-57